Time;durP1;ratioP1;P1;durP2;ratioP2;P2;SDS_P1;SDS_P2;PMS_P1;PMS_P2;Temp;Humidity;BMP_temperature;BMP_pressure;BME280_temperature;BME280_humidity;BME280_pressure;Samples;Min_cycle;Max_cycle;Signal;HPM_P1;HPM_P2
2023/12/23 00:02:22;;;;;;;2.80;0.70;;;7.60;99.90;;;;;;5068949;28;20187;-70
2023/12/23 00:04:48;;;;;;;3.13;0.50;;;7.60;99.90;;;;;;5070418;28;20267;-70
2023/12/23 00:07:14;;;;;;;2.00;0.60;;;7.60;99.90;;;;;;5070193;28;20210;-69
2023/12/23 00:09:43;;;;;;;2.37;0.50;;;7.60;99.90;;;;;;5070501;28;20206;-69
2023/12/23 00:12:08;;;;;;;2.20;0.60;;;7.60;99.90;;;;;;5069308;28;20803;-69
2023/12/23 00:14:34;;;;;;;2.13;0.60;;;7.60;99.90;;;;;;5070288;28;20465;-69
2023/12/23 00:17:00;;;;;;;1.60;0.60;;;7.60;99.90;;;;;;5070366;28;20620;-69
2023/12/23 00:19:26;;;;;;;1.57;0.70;;;7.60;99.90;;;;;;5051773;28;20445;-69
2023/12/23 00:21:51;;;;;;;1.73;0.70;;;7.60;99.90;;;;;;5070081;28;20199;-69
2023/12/23 00:24:17;;;;;;;0.80;0.50;;;7.60;99.90;;;;;;5070372;28;20191;-69
2023/12/23 00:26:43;;;;;;;0.87;0.40;;;7.50;99.90;;;;;;5070060;28;20222;-69
2023/12/23 00:29:08;;;;;;;2.00;0.60;;;7.50;99.90;;;;;;5069922;28;20432;-68
2023/12/23 00:31:34;;;;;;;1.37;0.60;;;7.50;99.90;;;;;;5069915;28;20187;-69
2023/12/23 00:34:00;;;;;;;1.57;0.60;;;7.50;99.90;;;;;;5068225;28;20207;-69
2023/12/23 00:36:25;;;;;;;0.97;0.67;;;7.50;99.90;;;;;;5069736;28;20282;-69
2023/12/23 00:38:51;;;;;;;0.80;0.40;;;7.50;99.90;;;;;;5069840;28;20629;-70
2023/12/23 00:41:16;;;;;;;2.40;0.67;;;7.50;99.90;;;;;;5069649;28;20266;-69
2023/12/23 00:43:42;;;;;;;1.40;0.40;;;7.60;99.90;;;;;;5069831;28;20179;-71
2023/12/23 00:46:07;;;;;;;3.00;0.90;;;7.60;99.90;;;;;;5069468;28;20214;-71
2023/12/23 00:48:33;;;;;;;1.00;0.70;;;7.60;99.90;;;;;;5069583;28;20189;-71
2023/12/23 00:50:59;;;;;;;1.50;0.57;;;7.50;99.90;;;;;;5068259;28;20716;-69
2023/12/23 00:53:26;;;;;;;1.77;0.70;;;7.60;99.90;;;;;;5068299;28;20518;-69
2023/12/23 00:55:52;;;;;;;1.63;0.60;;;7.50;99.90;;;;;;5069710;28;20656;-69
2023/12/23 00:58:18;;;;;;;1.37;0.50;;;7.50;99.90;;;;;;5069753;28;20421;-68
2023/12/23 01:00:43;;;;;;;1.63;0.60;;;7.60;99.90;;;;;;5069602;28;20894;-68
2023/12/23 01:03:09;;;;;;;1.30;0.50;;;7.50;99.90;;;;;;5068128;28;20240;-69
2023/12/23 01:05:35;;;;;;;2.90;0.67;;;7.40;99.90;;;;;;5069055;28;20219;-70
2023/12/23 01:08:00;;;;;;;1.63;0.50;;;7.40;99.90;;;;;;5069371;28;20211;-70
2023/12/23 01:10:26;;;;;;;5.80;0.53;;;7.40;99.90;;;;;;5067902;28;20183;-69
2023/12/23 01:12:53;;;;;;;3.33;0.60;;;7.40;99.90;;;;;;5069178;28;20219;-70
2023/12/23 01:15:19;;;;;;;1.43;0.60;;;7.30;99.90;;;;;;5069173;28;20947;-70
2023/12/23 01:17:44;;;;;;;7.13;0.90;;;7.30;99.90;;;;;;5068988;28;20801;-69
2023/12/23 01:20:10;;;;;;;2.83;0.70;;;7.30;99.90;;;;;;5068977;28;20614;-70
2023/12/23 01:22:36;;;;;;;2.50;0.80;;;7.30;99.90;;;;;;5068968;28;20420;-70
2023/12/23 01:25:02;;;;;;;3.63;0.80;;;7.30;99.90;;;;;;5068626;28;20935;-70
2023/12/23 01:27:28;;;;;;;3.00;0.70;;;7.30;99.90;;;;;;5068721;28;20223;-69
2023/12/23 01:29:54;;;;;;;5.23;0.90;;;7.30;99.90;;;;;;5067282;28;20437;-70
2023/12/23 01:32:19;;;;;;;5.70;0.57;;;7.20;99.90;;;;;;5068823;28;20431;-68
2023/12/23 01:34:45;;;;;;;1.97;0.53;;;7.20;99.90;;;;;;5068773;28;20211;-68
2023/12/23 01:37:10;;;;;;;3.83;0.90;;;7.20;99.90;;;;;;5068130;28;20665;-70
2023/12/23 01:39:36;;;;;;;2.80;0.60;;;7.20;99.90;;;;;;5069540;28;20221;-69
2023/12/23 01:42:02;;;;;;;4.93;2.10;;;7.20;99.90;;;;;;5069806;28;20240;-69
2023/12/23 01:44:27;;;;;;;1.37;0.80;;;7.20;99.90;;;;;;5068326;28;20242;-67
2023/12/23 01:46:55;;;;;;;7.23;0.70;;;7.10;99.90;;;;;;5068142;28;20284;-68
2023/12/23 01:49:22;;;;;;;1.50;0.63;;;7.20;99.90;;;;;;5069680;28;20281;-68
2023/12/23 01:51:50;;;;;;;2.83;0.70;;;7.20;99.90;;;;;;5070155;28;20441;-67
2023/12/23 01:54:15;;;;;;;3.87;0.90;;;7.20;99.90;;;;;;5069919;28;20461;-70
2023/12/23 01:56:42;;;;;;;3.97;0.70;;;7.10;99.90;;;;;;5068065;28;20488;-71
2023/12/23 01:59:08;;;;;;;1.93;0.90;;;7.10;99.90;;;;;;5067945;28;20191;-69
2023/12/23 02:01:35;;;;;;;2.93;0.77;;;7.10;99.90;;;;;;5067722;28;20801;-69
2023/12/23 02:04:01;;;;;;;3.03;0.80;;;7.10;99.90;;;;;;5067454;28;20278;-70
2023/12/23 02:06:26;;;;;;;1.70;1.10;;;7.10;99.90;;;;;;5068690;28;20528;-69
2023/12/23 02:08:52;;;;;;;1.70;0.60;;;7.10;99.90;;;;;;5067287;28;20195;-70
2023/12/23 02:11:35;;;;;;;3.33;0.90;;;7.10;99.90;;;;;;5068656;28;20245;-70
2023/12/23 02:14:21;;;;;;;3.77;0.90;;;7.20;99.90;;;;;;5068705;28;20289;-67
2023/12/23 02:16:48;;;;;;;3.00;1.27;;;7.20;99.90;;;;;;5068594;28;20771;-70
2023/12/23 02:19:13;;;;;;;1.10;0.60;;;7.10;99.90;;;;;;5067320;28;20417;-70
2023/12/23 02:21:39;;;;;;;3.80;0.90;;;7.10;99.90;;;;;;5067055;28;20775;-70
2023/12/23 02:24:05;;;;;;;5.50;0.80;;;7.10;99.90;;;;;;5068472;28;20192;-71
2023/12/23 02:26:33;;;;;;;5.60;1.10;;;7.10;99.90;;;;;;5068163;28;20309;-69
2023/12/23 02:29:06;;;;;;;1.63;0.97;;;7.10;99.90;;;;;;5068808;28;20187;-70
2023/12/23 02:31:33;;;;;;;3.00;0.90;;;7.10;99.90;;;;;;5068431;28;20431;-69
2023/12/23 02:33:59;;;;;;;10.67;1.73;;;7.10;99.90;;;;;;5068403;28;20508;-69
2023/12/23 02:36:25;;;;;;;2.07;0.70;;;7.10;99.90;;;;;;5069562;28;20465;-69
2023/12/23 02:38:51;;;;;;;4.20;1.10;;;7.10;99.90;;;;;;5070798;28;21019;-68
2023/12/23 02:41:16;;;;;;;4.47;1.07;;;7.00;99.90;;;;;;5070932;28;20266;-70
2023/12/23 02:43:42;;;;;;;2.90;0.87;;;7.00;99.90;;;;;;5070693;28;20653;-70
2023/12/23 02:46:08;;;;;;;3.43;1.20;;;7.00;99.90;;;;;;5072456;28;20210;-70
2023/12/23 02:48:33;;;;;;;3.03;1.00;;;7.00;99.90;;;;;;5071966;28;20269;-70
2023/12/23 02:50:59;;;;;;;1.63;0.63;;;7.00;99.90;;;;;;5070762;28;20191;-68
2023/12/23 02:53:24;;;;;;;3.80;0.80;;;7.00;99.90;;;;;;5071966;28;20198;-70
2023/12/23 02:55:50;;;;;;;4.23;1.00;;;7.00;99.90;;;;;;5070877;28;20599;-70
2023/12/23 02:58:16;;;;;;;3.33;0.87;;;7.00;99.90;;;;;;5075164;28;20206;-69
2023/12/23 03:00:41;;;;;;;3.00;1.20;;;7.00;99.90;;;;;;5057103;28;20649;-68
2023/12/23 03:03:07;;;;;;;5.07;1.03;;;7.00;99.90;;;;;;5075498;28;20207;-69
2023/12/23 03:05:32;;;;;;;2.90;0.50;;;7.00;99.90;;;;;;5072593;28;20244;-70
2023/12/23 03:07:58;;;;;;;5.63;0.77;;;7.10;99.90;;;;;;5072173;28;20215;-70
2023/12/23 03:10:24;;;;;;;1.00;0.67;;;7.10;99.90;;;;;;5072308;28;20672;-68
2023/12/23 03:12:50;;;;;;;2.03;0.70;;;7.10;99.90;;;;;;5070503;28;20261;-70
2023/12/23 03:15:15;;;;;;;3.10;1.00;;;7.00;99.90;;;;;;5071962;28;20508;-69
2023/12/23 03:17:41;;;;;;;2.23;0.70;;;7.00;99.90;;;;;;5071584;28;20207;-70
2023/12/23 03:20:08;;;;;;;7.20;0.80;;;7.00;99.90;;;;;;5071482;28;20179;-68
2023/12/23 03:22:34;;;;;;;1.83;0.70;;;7.00;99.90;;;;;;5071560;28;20179;-69
2023/12/23 03:24:59;;;;;;;4.57;0.50;;;7.00;99.90;;;;;;5053070;28;20459;-69
2023/12/23 03:27:25;;;;;;;4.17;0.70;;;7.00;99.90;;;;;;5071125;28;20225;-69
2023/12/23 03:29:51;;;;;;;5.13;0.50;;;7.00;99.90;;;;;;5069675;28;20191;-68
2023/12/23 03:32:16;;;;;;;1.80;0.60;;;7.00;99.90;;;;;;5071227;28;20565;-70
2023/12/23 03:34:42;;;;;;;0.70;0.40;;;7.00;99.90;;;;;;5069566;28;20213;-70
2023/12/23 03:37:07;;;;;;;0.80;0.40;;;7.00;99.90;;;;;;5070970;28;20203;-69
2023/12/23 03:39:33;;;;;;;1.80;0.70;;;7.00;99.90;;;;;;5069610;28;20183;-69
2023/12/23 03:41:58;;;;;;;3.23;1.37;;;7.00;99.90;;;;;;5071210;28;20190;-70
2023/12/23 03:44:24;;;;;;;1.00;0.50;;;7.00;99.90;;;;;;5070924;28;20195;-70
2023/12/23 03:46:50;;;;;;;1.77;0.40;;;7.00;99.90;;;;;;5068188;28;20233;-71
2023/12/23 03:49:15;;;;;;;1.33;0.57;;;7.00;99.90;;;;;;5070845;28;20183;-70
2023/12/23 03:51:41;;;;;;;2.23;0.50;;;7.00;99.90;;;;;;5070776;28;20191;-70
2023/12/23 03:54:06;;;;;;;2.60;0.50;;;6.90;99.90;;;;;;5071019;28;20230;-70
2023/12/23 03:56:32;;;;;;;0.80;0.57;;;6.90;99.90;;;;;;5069414;28;20630;-70
2023/12/23 03:58:58;;;;;;;0.90;0.43;;;6.80;99.90;;;;;;5070561;28;20187;-69
2023/12/23 04:01:24;;;;;;;0.80;0.40;;;6.90;99.90;;;;;;5070751;28;20218;-69
2023/12/23 04:03:50;;;;;;;1.37;0.37;;;6.80;99.90;;;;;;5070353;28;20265;-69
2023/12/23 04:06:16;;;;;;;0.80;0.40;;;6.80;99.90;;;;;;5070438;28;20501;-69
2023/12/23 04:08:42;;;;;;;1.00;0.50;;;6.80;99.90;;;;;;5071027;28;20726;-70
2023/12/23 04:11:08;;;;;;;2.43;0.70;;;6.80;99.90;;;;;;5068862;28;20551;-70
2023/12/23 04:13:34;;;;;;;2.60;0.70;;;6.80;99.90;;;;;;5068592;28;20445;-69
2023/12/23 04:16:03;;;;;;;1.43;0.50;;;6.80;99.90;;;;;;5070174;28;20195;-69
2023/12/23 04:18:29;;;;;;;0.70;0.40;;;6.80;99.90;;;;;;5068740;28;20183;-69
2023/12/23 04:20:55;;;;;;;1.10;0.40;;;6.70;99.90;;;;;;5070458;28;20409;-69
2023/12/23 04:23:20;;;;;;;1.10;0.40;;;6.70;99.90;;;;;;5068642;28;20270;-69
2023/12/23 04:25:46;;;;;;;0.70;0.40;;;6.70;99.90;;;;;;5069832;28;20202;-70
2023/12/23 04:28:12;;;;;;;1.70;0.50;;;6.70;99.90;;;;;;5068546;28;20226;-68
2023/12/23 04:30:38;;;;;;;1.67;0.40;;;6.70;99.90;;;;;;5070005;28;20184;-70
2023/12/23 04:33:04;;;;;;;5.23;0.60;;;6.60;99.90;;;;;;5069913;28;20425;-68
2023/12/23 04:35:29;;;;;;;1.57;0.47;;;6.60;99.90;;;;;;5069849;28;20206;-70
2023/12/23 04:37:55;;;;;;;1.03;0.40;;;6.60;99.90;;;;;;5069709;28;20211;-69
2023/12/23 04:40:21;;;;;;;0.70;0.40;;;6.60;99.90;;;;;;5068544;28;20243;-70
2023/12/23 04:42:47;;;;;;;0.60;0.40;;;6.60;99.90;;;;;;5068386;28;20425;-68
2023/12/23 04:45:13;;;;;;;0.70;0.40;;;6.70;99.90;;;;;;5068594;28;20223;-69
2023/12/23 04:47:38;;;;;;;0.80;0.40;;;6.70;99.90;;;;;;5068751;28;20239;-69
2023/12/23 04:50:05;;;;;;;0.70;0.40;;;6.60;99.90;;;;;;5070391;28;20557;-68
2023/12/23 04:52:31;;;;;;;1.47;0.40;;;6.60;99.90;;;;;;5069206;28;20575;-69
2023/12/23 04:54:59;;;;;;;0.70;0.40;;;6.70;99.90;;;;;;5068496;28;20471;-69
2023/12/23 04:57:25;;;;;;;1.93;0.40;;;6.60;99.90;;;;;;5068668;28;20195;-69
2023/12/23 04:59:50;;;;;;;1.00;0.40;;;6.70;99.90;;;;;;5069836;28;20867;-69
2023/12/23 05:02:16;;;;;;;1.10;0.40;;;6.70;99.90;;;;;;5069809;28;20447;-68
2023/12/23 05:04:43;;;;;;;1.03;0.40;;;6.70;99.90;;;;;;5051554;28;20198;-69
2023/12/23 05:07:09;;;;;;;2.33;0.40;;;6.70;99.90;;;;;;5068272;28;20271;-69
2023/12/23 05:09:36;;;;;;;1.83;0.37;;;6.70;99.90;;;;;;5069679;28;20505;-69
2023/12/23 05:12:02;;;;;;;1.40;0.40;;;6.70;99.90;;;;;;5068081;28;20696;-69
2023/12/23 05:14:28;;;;;;;0.70;0.40;;;6.70;99.90;;;;;;5069422;28;20465;-70
2023/12/23 05:16:53;;;;;;;0.90;0.67;;;6.70;99.90;;;;;;5067866;28;20349;-70
2023/12/23 05:19:19;;;;;;;1.30;0.40;;;6.70;99.90;;;;;;5067824;28;20187;-70
2023/12/23 05:21:44;;;;;;;0.60;0.30;;;6.70;99.90;;;;;;5067944;28;20175;-68
2023/12/23 05:24:10;;;;;;;0.70;0.40;;;6.70;99.90;;;;;;5067693;28;20710;-70
2023/12/23 05:26:35;;;;;;;0.90;0.40;;;6.70;99.90;;;;;;5069112;28;20245;-70
2023/12/23 05:29:01;;;;;;;1.23;0.40;;;6.70;99.90;;;;;;5069095;28;20566;-70
2023/12/23 05:31:26;;;;;;;4.87;0.30;;;6.70;99.90;;;;;;5067840;28;20190;-70
2023/12/23 05:33:55;;;;;;;0.70;0.40;;;6.60;99.90;;;;;;5067773;28;20217;-70
2023/12/23 05:36:21;;;;;;;0.63;0.30;;;6.70;99.90;;;;;;5067799;28;20708;-69
2023/12/23 05:38:47;;;;;;;0.60;0.40;;;6.70;99.90;;;;;;5069059;28;20432;-70
2023/12/23 05:41:12;;;;;;;0.60;0.30;;;6.70;99.90;;;;;;5069002;28;20421;-69
2023/12/23 05:43:38;;;;;;;0.60;0.30;;;6.70;99.90;;;;;;5069162;28;20198;-70
2023/12/23 05:46:04;;;;;;;0.70;0.40;;;6.70;99.90;;;;;;5068949;28;20333;-71
2023/12/23 05:48:29;;;;;;;0.70;0.37;;;6.70;99.90;;;;;;5068898;28;20182;-68
2023/12/23 05:50:55;;;;;;;2.20;0.40;;;6.70;99.90;;;;;;5069658;28;20626;-70
2023/12/23 05:53:20;;;;;;;0.60;0.30;;;6.70;99.90;;;;;;5068780;28;20564;-70
2023/12/23 05:55:47;;;;;;;0.77;0.30;;;6.70;99.90;;;;;;5067462;28;20183;-70
2023/12/23 05:58:12;;;;;;;1.17;0.73;;;6.70;99.90;;;;;;5068874;28;20183;-71
2023/12/23 06:00:38;;;;;;;1.33;0.40;;;6.70;99.90;;;;;;5068835;28;20436;-70
2023/12/23 06:03:04;;;;;;;1.30;0.50;;;6.70;99.90;;;;;;5067207;28;20184;-68
2023/12/23 06:05:30;;;;;;;1.53;0.40;;;6.80;99.90;;;;;;5067149;28;20240;-70
2023/12/23 06:07:56;;;;;;;0.60;0.40;;;6.80;99.90;;;;;;5050332;28;20588;-69
2023/12/23 06:10:22;;;;;;;1.00;0.40;;;6.70;99.90;;;;;;5067697;28;20490;-69
2023/12/23 06:12:48;;;;;;;0.80;0.50;;;6.70;99.90;;;;;;5068412;28;20425;-69
2023/12/23 06:15:14;;;;;;;1.10;0.87;;;6.80;99.90;;;;;;5068575;28;20215;-70
2023/12/23 06:17:39;;;;;;;0.60;0.40;;;6.80;99.90;;;;;;5068735;28;20445;-70
2023/12/23 06:20:05;;;;;;;0.60;0.40;;;6.80;99.90;;;;;;5068808;28;20240;-70
2023/12/23 06:22:31;;;;;;;0.70;0.40;;;6.80;99.90;;;;;;5067511;28;21047;-70
2023/12/23 06:24:57;;;;;;;0.70;0.40;;;6.80;99.90;;;;;;5069395;28;20425;-70
2023/12/23 06:27:23;;;;;;;0.60;0.30;;;6.90;99.90;;;;;;5068719;28;20467;-70
2023/12/23 06:29:48;;;;;;;0.70;0.30;;;6.90;99.90;;;;;;5068808;28;20684;-69
2023/12/23 06:32:14;;;;;;;0.80;0.40;;;6.90;99.90;;;;;;5069283;28;20192;-71
2023/12/23 06:34:39;;;;;;;0.60;0.30;;;6.80;99.90;;;;;;5067608;28;20965;-68
2023/12/23 06:37:05;;;;;;;1.30;0.50;;;6.90;99.90;;;;;;5069240;28;20689;-69
2023/12/23 06:39:31;;;;;;;0.67;0.40;;;6.90;99.90;;;;;;5069265;28;20190;-69
2023/12/23 06:41:57;;;;;;;0.60;0.30;;;6.80;99.90;;;;;;5069200;28;20232;-69
2023/12/23 06:44:22;;;;;;;0.60;0.30;;;6.80;99.90;;;;;;5069177;28;20471;-68
2023/12/23 06:46:48;;;;;;;0.80;0.50;;;6.80;99.90;;;;;;5068003;28;20248;-68
2023/12/23 06:49:14;;;;;;;0.67;0.40;;;6.90;99.90;;;;;;5069163;28;20199;-70
2023/12/23 06:51:39;;;;;;;0.60;0.33;;;6.90;99.90;;;;;;5069769;28;20183;-68
2023/12/23 06:54:05;;;;;;;1.27;0.40;;;6.80;99.90;;;;;;5067837;28;20513;-67
2023/12/23 06:56:30;;;;;;;0.70;0.40;;;6.90;99.90;;;;;;5069473;28;20207;-68
2023/12/23 06:58:56;;;;;;;0.70;0.60;;;6.80;99.90;;;;;;5068785;28;20218;-68
2023/12/23 07:01:22;;;;;;;0.80;0.43;;;6.90;99.90;;;;;;5068621;28;20191;-68
2023/12/23 07:03:47;;;;;;;0.90;0.40;;;6.90;99.90;;;;;;5067220;28;20307;-68
2023/12/23 07:06:13;;;;;;;0.70;0.40;;;6.90;99.90;;;;;;5067123;28;20199;-68
2023/12/23 07:08:40;;;;;;;1.70;0.40;;;6.80;99.90;;;;;;5068430;28;20766;-68
2023/12/23 07:11:08;;;;;;;1.87;0.30;;;6.90;99.90;;;;;;5068381;28;20523;-69
2023/12/23 07:13:34;;;;;;;2.40;0.40;;;6.90;99.90;;;;;;5068082;28;20232;-69
2023/12/23 07:16:00;;;;;;;0.70;0.40;;;6.90;99.90;;;;;;5066981;28;20421;-68
2023/12/23 07:18:25;;;;;;;1.23;0.40;;;6.90;99.90;;;;;;5066885;28;20478;-70
2023/12/23 07:20:51;;;;;;;4.10;0.47;;;6.90;99.90;;;;;;5068342;28;20237;-68
2023/12/23 07:23:17;;;;;;;0.70;0.50;;;6.90;99.90;;;;;;5071868;28;20571;-71
2023/12/23 07:25:42;;;;;;;4.67;0.43;;;6.90;99.90;;;;;;5070489;28;20737;-69
2023/12/23 07:28:08;;;;;;;0.70;0.43;;;6.90;99.90;;;;;;5072088;28;20191;-69
2023/12/23 07:30:33;;;;;;;1.53;0.40;;;6.90;99.90;;;;;;5070432;28;20194;-69
2023/12/23 07:32:59;;;;;;;0.70;0.40;;;6.90;99.90;;;;;;5071856;28;20202;-68
2023/12/23 07:35:25;;;;;;;0.70;0.40;;;6.90;99.90;;;;;;5071469;28;20284;-68
2023/12/23 07:37:51;;;;;;;0.60;0.40;;;6.90;99.90;;;;;;5070229;28;20206;-68
2023/12/23 07:40:17;;;;;;;0.83;0.83;;;6.80;99.90;;;;;;5071728;28;20467;-69
2023/12/23 07:42:42;;;;;;;0.70;0.40;;;6.80;99.90;;;;;;5071924;28;20413;-68
2023/12/23 07:45:09;;;;;;;0.60;0.37;;;6.80;99.90;;;;;;5072158;28;20867;-69
2023/12/23 07:47:34;;;;;;;0.70;0.40;;;6.80;99.90;;;;;;5054049;28;20689;-69
2023/12/23 07:50:00;;;;;;;0.60;0.40;;;6.90;99.90;;;;;;5072045;28;20429;-69
2023/12/23 07:52:26;;;;;;;5.23;0.40;;;6.90;99.90;;;;;;5071962;28;20256;-68
2023/12/23 07:54:52;;;;;;;0.70;0.40;;;6.90;99.90;;;;;;5071953;28;20226;-68
2023/12/23 07:57:18;;;;;;;1.00;0.50;;;6.90;99.90;;;;;;5071756;28;20441;-68
2023/12/23 07:59:45;;;;;;;1.13;0.40;;;6.90;99.90;;;;;;5071853;28;20417;-69
2023/12/23 08:02:10;;;;;;;1.47;0.50;;;6.90;99.90;;;;;;5070252;28;20432;-69
2023/12/23 08:04:36;;;;;;;0.70;0.40;;;6.90;99.90;;;;;;5070635;28;20429;-69
2023/12/23 08:07:02;;;;;;;0.70;0.40;;;6.90;99.90;;;;;;5070235;28;20229;-69
2023/12/23 08:09:27;;;;;;;2.83;0.40;;;6.90;99.90;;;;;;5069054;28;20649;-69
2023/12/23 08:11:53;;;;;;;0.80;0.40;;;6.90;99.90;;;;;;5070353;28;20477;-70
2023/12/23 08:14:19;;;;;;;0.70;0.40;;;6.90;99.90;;;;;;5071401;28;20302;-69
2023/12/23 08:16:44;;;;;;;0.60;0.30;;;7.00;99.90;;;;;;5071135;28;20211;-68
2023/12/23 08:19:10;;;;;;;0.70;0.40;;;7.00;99.90;;;;;;5070048;28;20641;-69
2023/12/23 08:21:35;;;;;;;0.93;0.60;;;7.00;99.90;;;;;;5070601;28;20194;-69
2023/12/23 08:24:04;;;;;;;2.10;0.40;;;6.90;99.90;;;;;;5067686;28;20668;-70
2023/12/23 08:26:30;;;;;;;4.70;0.40;;;7.00;99.90;;;;;;5067938;28;20233;-70
2023/12/23 08:28:55;;;;;;;0.60;0.40;;;6.90;99.90;;;;;;5068676;28;20508;-69
2023/12/23 08:31:21;;;;;;;0.70;0.50;;;7.00;99.90;;;;;;5069080;28;20429;-70
2023/12/23 08:33:46;;;;;;;1.57;0.50;;;7.00;99.90;;;;;;5068155;28;20261;-69
2023/12/23 08:36:13;;;;;;;1.70;0.50;;;7.00;99.90;;;;;;5068819;28;20770;-69
2023/12/23 08:38:38;;;;;;;0.60;0.40;;;7.00;99.90;;;;;;5067763;28;20210;-69
2023/12/23 08:41:04;;;;;;;0.70;0.40;;;7.00;99.90;;;;;;5069420;28;20445;-69
2023/12/23 08:43:30;;;;;;;0.70;0.40;;;7.00;99.90;;;;;;5070067;28;20217;-68
2023/12/23 08:45:56;;;;;;;1.10;0.40;;;7.10;99.90;;;;;;5067125;28;20179;-69
2023/12/23 08:48:21;;;;;;;0.70;0.40;;;7.00;99.90;;;;;;5050590;28;20464;-69
2023/12/23 08:50:47;;;;;;;0.70;0.40;;;7.00;99.90;;;;;;5067125;28;20190;-69
2023/12/23 08:53:14;;;;;;;0.70;0.40;;;7.00;99.90;;;;;;5068256;28;20179;-69
2023/12/23 08:55:39;;;;;;;0.70;0.40;;;7.00;99.90;;;;;;5066683;28;20226;-69
2023/12/23 08:58:05;;;;;;;0.70;0.40;;;7.00;99.90;;;;;;5068082;28;20855;-69
2023/12/23 09:00:31;;;;;;;0.70;0.50;;;7.00;99.90;;;;;;5068189;28;20246;-70
2023/12/23 09:02:56;;;;;;;5.77;0.77;;;7.00;99.90;;;;;;5049853;28;20534;-70
2023/12/23 09:05:22;;;;;;;6.00;0.50;;;7.10;99.90;;;;;;5066299;28;20256;-69
2023/12/23 09:07:47;;;;;;;1.53;0.60;;;7.10;99.90;;;;;;5067608;28;20293;-70
2023/12/23 09:10:13;;;;;;;0.60;0.30;;;7.10;99.90;;;;;;5067771;28;20564;-70
2023/12/23 09:12:39;;;;;;;0.70;0.40;;;7.10;99.90;;;;;;5067969;28;20265;-70
2023/12/23 09:15:05;;;;;;;0.70;0.40;;;7.10;99.90;;;;;;5067630;28;20574;-69
2023/12/23 09:17:31;;;;;;;1.00;0.50;;;7.10;99.90;;;;;;5067792;28;20929;-69
2023/12/23 09:19:56;;;;;;;0.87;0.50;;;7.10;99.90;;;;;;5068314;28;20182;-69
2023/12/23 09:22:22;;;;;;;0.70;0.40;;;7.10;99.90;;;;;;5067742;28;20640;-70
2023/12/23 09:24:47;;;;;;;0.80;0.40;;;7.10;99.90;;;;;;5067912;28;20198;-69
2023/12/23 09:27:13;;;;;;;0.90;0.60;;;7.30;99.90;;;;;;5067474;28;20230;-70
2023/12/23 09:29:39;;;;;;;0.67;0.40;;;7.20;99.90;;;;;;5065920;28;20271;-69
2023/12/23 09:32:05;;;;;;;0.70;0.40;;;7.20;99.90;;;;;;5065984;28;20203;-70
2023/12/23 09:34:30;;;;;;;1.17;0.40;;;7.20;99.90;;;;;;5067546;28;20214;-70
2023/12/23 09:36:56;;;;;;;0.80;0.40;;;7.20;99.90;;;;;;5067188;28;20285;-69
2023/12/23 09:39:22;;;;;;;1.33;0.50;;;7.20;99.90;;;;;;5067541;28;20586;-70
2023/12/23 09:41:48;;;;;;;0.67;0.40;;;7.20;99.90;;;;;;5067259;28;20522;-69
2023/12/23 09:44:14;;;;;;;1.03;0.40;;;7.30;99.90;;;;;;5067350;28;20183;-69
2023/12/23 09:46:39;;;;;;;0.70;0.40;;;7.30;99.90;;;;;;5067078;28;20452;-69
2023/12/23 09:49:05;;;;;;;0.70;0.40;;;7.40;99.90;;;;;;5067408;28;20516;-70
2023/12/23 09:51:32;;;;;;;1.63;0.50;;;7.40;99.90;;;;;;5065873;28;20559;-70
2023/12/23 09:54:02;;;;;;;0.63;0.30;;;7.40;99.90;;;;;;5067112;28;20552;-69
2023/12/23 09:56:29;;;;;;;1.93;0.50;;;7.30;99.90;;;;;;5066181;28;20441;-69
2023/12/23 09:58:55;;;;;;;1.10;0.40;;;7.30;99.90;;;;;;5065650;28;20425;-69
2023/12/23 10:01:20;;;;;;;1.10;0.40;;;7.30;99.90;;;;;;5065715;28;20471;-69
2023/12/23 10:03:47;;;;;;;1.13;0.60;;;7.30;99.90;;;;;;5066047;28;20258;-69
2023/12/23 10:06:16;;;;;;;0.90;0.50;;;7.30;99.90;;;;;;5067512;28;20199;-69
2023/12/23 10:08:44;;;;;;;0.70;0.40;;;7.30;99.90;;;;;;5067833;28;20420;-69
2023/12/23 10:11:10;;;;;;;0.70;0.43;;;7.30;99.90;;;;;;5068109;28;20413;-69
2023/12/23 10:13:36;;;;;;;0.70;0.40;;;7.40;99.90;;;;;;5066807;28;20979;-70
2023/12/23 10:16:03;;;;;;;1.83;0.50;;;7.30;99.90;;;;;;5068181;28;20184;-70
2023/12/23 10:18:30;;;;;;;0.77;0.33;;;7.30;99.90;;;;;;5066722;28;20743;-69
2023/12/23 10:20:56;;;;;;;1.67;0.50;;;7.30;99.90;;;;;;5068202;28;21070;-69
2023/12/23 10:23:22;;;;;;;0.80;0.40;;;7.30;99.90;;;;;;5068364;28;20946;-69
2023/12/23 10:25:48;;;;;;;0.87;0.50;;;7.30;99.90;;;;;;5067998;28;20454;-70
2023/12/23 10:28:17;;;;;;;1.10;0.40;;;7.30;99.90;;;;;;5066671;28;20193;-68
2023/12/23 10:30:50;;;;;;;0.70;0.40;;;7.20;99.90;;;;;;5067999;28;20194;-68
2023/12/23 10:33:17;;;;;;;0.93;0.33;;;7.20;99.90;;;;;;5067177;28;21048;-70
2023/12/23 10:35:47;;;;;;;1.17;0.57;;;7.30;99.90;;;;;;5066550;28;20475;-70
2023/12/23 10:38:20;;;;;;;0.60;0.30;;;7.30;99.90;;;;;;5067951;28;20418;-69
2023/12/23 10:40:52;;;;;;;0.80;0.30;;;7.30;99.90;;;;;;5066637;28;20441;-68
2023/12/23 10:43:18;;;;;;;0.70;0.40;;;7.30;99.90;;;;;;5067743;28;20923;-68
2023/12/23 10:45:48;;;;;;;0.60;0.40;;;7.30;99.90;;;;;;5066860;28;20422;-69
2023/12/23 10:48:16;;;;;;;1.53;0.40;;;7.30;99.90;;;;;;5067844;28;20981;-69
2023/12/23 10:50:43;;;;;;;0.70;0.30;;;7.30;99.90;;;;;;5067987;28;20957;-70
2023/12/23 10:53:12;;;;;;;2.40;0.50;;;7.30;99.90;;;;;;5070005;28;20498;-68
2023/12/23 10:55:39;;;;;;;0.70;0.40;;;7.40;99.90;;;;;;5067393;28;20464;-68
2023/12/23 10:58:09;;;;;;;0.90;0.40;;;7.30;99.90;;;;;;5069477;28;20448;-69
2023/12/23 11:00:36;;;;;;;0.80;0.60;;;7.40;99.90;;;;;;5071104;28;20424;-70
2023/12/23 11:03:03;;;;;;;0.70;0.40;;;7.40;99.90;;;;;;5071387;28;20915;-70
2023/12/23 11:05:31;;;;;;;0.80;0.40;;;7.40;99.90;;;;;;5071214;28;20428;-68
2023/12/23 11:07:59;;;;;;;0.70;0.40;;;7.40;99.90;;;;;;5070748;28;20467;-70
2023/12/23 11:10:28;;;;;;;1.67;0.60;;;7.30;99.90;;;;;;5070760;28;20423;-70
2023/12/23 11:12:55;;;;;;;0.70;0.40;;;7.40;99.90;;;;;;5070975;28;20428;-70
2023/12/23 11:15:20;;;;;;;1.43;0.40;;;7.40;99.90;;;;;;5069344;28;20815;-70
2023/12/23 11:17:46;;;;;;;0.67;0.40;;;7.30;99.90;;;;;;5070584;28;20447;-69
2023/12/23 11:20:31;;;;;;;0.60;0.30;;;7.30;99.90;;;;;;5070746;28;20187;-70
2023/12/23 11:22:56;;;;;;;0.70;0.50;;;7.30;99.90;;;;;;5070339;28;20179;-69
2023/12/23 11:25:39;;;;;;;0.70;0.40;;;7.30;99.90;;;;;;5070453;28;20425;-69
2023/12/23 11:28:13;;;;;;;0.73;0.40;;;7.30;99.90;;;;;;5052226;28;20298;-69
2023/12/23 11:30:58;;;;;;;1.07;0.40;;;7.20;99.90;;;;;;5052213;28;20958;-70
2023/12/23 11:33:27;;;;;;;0.60;0.40;;;7.20;99.90;;;;;;5068880;28;20421;-69
2023/12/23 11:35:57;;;;;;;1.10;0.47;;;7.20;99.90;;;;;;5068867;28;20480;-69
2023/12/23 11:38:27;;;;;;;1.03;0.93;;;7.10;99.90;;;;;;5069079;28;20496;-69
2023/12/23 11:40:53;;;;;;;0.73;0.50;;;7.10;99.90;;;;;;5068811;28;20519;-69
2023/12/23 11:43:19;;;;;;;1.20;0.47;;;7.10;99.90;;;;;;5070165;28;20532;-70
2023/12/23 11:45:46;;;;;;;0.70;0.40;;;7.00;99.90;;;;;;5068260;28;20248;-69
2023/12/23 11:48:14;;;;;;;0.60;0.40;;;7.00;99.90;;;;;;5070320;28;20460;-69
2023/12/23 11:50:39;;;;;;;0.77;0.43;;;7.00;99.90;;;;;;5070258;28;20417;-69
2023/12/23 11:53:05;;;;;;;0.70;0.40;;;7.00;99.90;;;;;;5051993;28;20426;-69
2023/12/23 11:55:31;;;;;;;2.10;0.60;;;7.00;99.90;;;;;;5068496;28;20636;-70
2023/12/23 11:57:58;;;;;;;2.03;0.43;;;7.10;99.90;;;;;;5069248;28;20471;-70
2023/12/23 12:00:23;;;;;;;0.60;0.40;;;6.90;99.90;;;;;;5069241;28;20555;-69
2023/12/23 12:02:49;;;;;;;1.00;0.50;;;7.10;99.90;;;;;;5069114;28;20425;-68
2023/12/23 12:05:14;;;;;;;0.70;0.60;;;7.10;99.90;;;;;;5069393;28;20214;-69
2023/12/23 12:07:41;;;;;;;0.70;0.50;;;7.10;99.90;;;;;;5066430;28;20207;-70
2023/12/23 12:10:07;;;;;;;0.80;0.40;;;7.10;99.90;;;;;;5067387;28;20264;-69
2023/12/23 12:12:32;;;;;;;0.80;0.40;;;7.10;99.90;;;;;;5069436;28;20520;-68
2023/12/23 12:14:58;;;;;;;1.33;0.70;;;7.10;99.90;;;;;;5067543;28;21148;-69
2023/12/23 12:17:24;;;;;;;0.60;0.40;;;7.10;99.90;;;;;;5068808;28;20226;-69
2023/12/23 12:19:50;;;;;;;0.70;0.33;;;7.10;99.90;;;;;;5067557;28;20210;-70
2023/12/23 12:22:16;;;;;;;0.70;0.43;;;7.10;99.90;;;;;;5068798;28;20915;-69
2023/12/23 12:24:43;;;;;;;0.70;0.57;;;7.10;99.90;;;;;;5067389;28;20421;-69
2023/12/23 12:27:09;;;;;;;0.80;0.60;;;7.10;99.90;;;;;;5067631;28;20651;-68
2023/12/23 12:29:35;;;;;;;0.70;0.50;;;7.10;99.90;;;;;;5068880;28;20429;-69
2023/12/23 12:32:01;;;;;;;0.70;0.50;;;7.10;99.90;;;;;;5069057;28;20433;-69
2023/12/23 12:34:28;;;;;;;0.80;0.60;;;7.10;99.90;;;;;;5067206;28;20222;-67
2023/12/23 12:36:54;;;;;;;2.00;0.40;;;7.00;99.90;;;;;;5068591;28;20592;-69
2023/12/23 12:39:20;;;;;;;0.70;0.40;;;7.10;99.90;;;;;;5068274;28;20424;-70
2023/12/23 12:41:50;;;;;;;0.70;0.40;;;7.10;99.90;;;;;;5068408;28;20417;-67
2023/12/23 12:44:16;;;;;;;0.70;0.40;;;7.20;99.90;;;;;;5068385;28;20413;-69
2023/12/23 12:46:51;;;;;;;0.70;0.40;;;7.10;99.90;;;;;;5068341;28;20440;-69
2023/12/23 12:49:19;;;;;;;0.70;0.40;;;7.20;99.90;;;;;;5066897;28;20478;-68
2023/12/23 12:51:44;;;;;;;4.83;0.50;;;7.30;99.90;;;;;;5066710;28;20432;-68
2023/12/23 12:54:10;;;;;;;2.90;0.60;;;7.30;99.90;;;;;;5066660;28;20848;-69